sensor_id;sensor_type;location;lat;lon;timestamp;pressure;altitude;pressure_sealevel;temperature;humidity
77793;BME280;66983;51.438;5.438;2023-02-13T00:02:13;103613.25;;;7.49;76.68
77793;BME280;66983;51.438;5.438;2023-02-13T00:04:40;103612.34;;;7.48;76.41
77793;BME280;66983;51.438;5.438;2023-02-13T00:07:08;103610.50;;;7.44;77.11
77793;BME280;66983;51.438;5.438;2023-02-13T00:09:36;103616.72;;;7.46;76.55
77793;BME280;66983;51.438;5.438;2023-02-13T00:12:03;103607.81;;;7.43;77.18
77793;BME280;66983;51.438;5.438;2023-02-13T00:14:29;103607.88;;;7.46;76.87
77793;BME280;66983;51.438;5.438;2023-02-13T00:16:55;103603.44;;;7.45;77.37
77793;BME280;66983;51.438;5.438;2023-02-13T00:19:21;103602.69;;;7.52;77.06
77793;BME280;66983;51.438;5.438;2023-02-13T00:21:46;103597.28;;;7.47;76.85
77793;BME280;66983;51.438;5.438;2023-02-13T00:24:12;103589.28;;;7.44;76.70
77793;BME280;66983;51.438;5.438;2023-02-13T00:26:37;103593.69;;;7.44;77.22
77793;BME280;66983;51.438;5.438;2023-02-13T00:29:04;103591.91;;;7.43;77.34
77793;BME280;66983;51.438;5.438;2023-02-13T00:31:30;103600.59;;;7.36;76.83
77793;BME280;66983;51.438;5.438;2023-02-13T00:33:55;103600.53;;;7.33;76.64
77793;BME280;66983;51.438;5.438;2023-02-13T00:36:22;103600.47;;;7.30;77.24
77793;BME280;66983;51.438;5.438;2023-02-13T00:38:48;103598.75;;;7.32;77.35
77793;BME280;66983;51.438;5.438;2023-02-13T00:41:14;103598.63;;;7.24;76.89
77793;BME280;66983;51.438;5.438;2023-02-13T00:43:44;103594.22;;;7.25;76.97
77793;BME280;66983;51.438;5.438;2023-02-13T00:46:10;103588.00;;;7.23;76.46
77793;BME280;66983;51.438;5.438;2023-02-13T00:48:36;103586.94;;;7.14;76.81
77793;BME280;66983;51.438;5.438;2023-02-13T00:51:02;103596.50;;;7.06;77.35
77793;BME280;66983;51.438;5.438;2023-02-13T00:53:29;103585.75;;;6.99;77.73
77793;BME280;66983;51.438;5.438;2023-02-13T00:55:55;103580.53;;;7.05;77.17
77793;BME280;66983;51.438;5.438;2023-02-13T00:58:21;103587.59;;;7.04;77.39
77793;BME280;66983;51.438;5.438;2023-02-13T01:00:48;103575.97;;;6.96;77.74
77793;BME280;66983;51.438;5.438;2023-02-13T01:03:15;103582.09;;;6.94;77.39
77793;BME280;66983;51.438;5.438;2023-02-13T01:05:44;103576.50;;;6.80;77.13
77793;BME280;66983;51.438;5.438;2023-02-13T01:08:14;103581.75;;;6.77;77.68
77793;BME280;66983;51.438;5.438;2023-02-13T01:10:40;103601.06;;;6.70;77.54
77793;BME280;66983;51.438;5.438;2023-02-13T01:13:07;103595.63;;;6.64;77.92
77793;BME280;66983;51.438;5.438;2023-02-13T01:15:34;103593.81;;;6.63;78.51
77793;BME280;66983;51.438;5.438;2023-02-13T01:18:00;103592.03;;;6.62;78.20
77793;BME280;66983;51.438;5.438;2023-02-13T01:20:27;103590.28;;;6.62;78.26
77793;BME280;66983;51.438;5.438;2023-02-13T01:22:54;103595.44;;;6.56;79.19
77793;BME280;66983;51.438;5.438;2023-02-13T01:25:21;103595.41;;;6.55;78.16
77793;BME280;66983;51.438;5.438;2023-02-13T01:27:46;103587.41;;;6.53;78.47
77793;BME280;66983;51.438;5.438;2023-02-13T01:30:16;103589.22;;;6.54;79.03
77793;BME280;66983;51.438;5.438;2023-02-13T01:32:44;103587.41;;;6.53;79.12
77793;BME280;66983;51.438;5.438;2023-02-13T01:35:13;103587.34;;;6.49;78.59
77793;BME280;66983;51.438;5.438;2023-02-13T01:37:39;103584.47;;;6.39;78.68
77793;BME280;66983;51.438;5.438;2023-02-13T01:40:07;103586.34;;;6.43;79.22
77793;BME280;66983;51.438;5.438;2023-02-13T01:42:34;103587.19;;;6.42;78.58
77793;BME280;66983;51.438;5.438;2023-02-13T01:45:12;103580.91;;;6.37;78.85
77793;BME280;66983;51.438;5.438;2023-02-13T01:50:40;103576.69;;;6.45;79.53
77793;BME280;66983;51.438;5.438;2023-02-13T01:53:15;103572.31;;;6.47;79.51
77793;BME280;66983;51.438;5.438;2023-02-13T01:55:47;103566.94;;;6.44;79.38
77793;BME280;66983;51.438;5.438;2023-02-13T01:58:19;103567.91;;;6.48;79.35
77793;BME280;66983;51.438;5.438;2023-02-13T02:00:47;103575.75;;;6.43;79.22
77793;BME280;66983;51.438;5.438;2023-02-13T02:03:35;103574.84;;;6.43;79.62
77793;BME280;66983;51.438;5.438;2023-02-13T02:06:11;103566.88;;;6.41;78.88
77793;BME280;66983;51.438;5.438;2023-02-13T02:08:39;103570.31;;;6.37;79.50
77793;BME280;66983;51.438;5.438;2023-02-13T02:11:16;103575.66;;;6.40;79.40
77793;BME280;66983;51.438;5.438;2023-02-13T02:13:45;103576.47;;;6.36;79.79
77793;BME280;66983;51.438;5.438;2023-02-13T02:16:11;103572.03;;;6.35;79.64
77793;BME280;66983;51.438;5.438;2023-02-13T02:18:36;103569.38;;;6.35;79.82
77793;BME280;66983;51.438;5.438;2023-02-13T02:46:15;103562.88;;;6.21;80.61
77793;BME280;66983;51.438;5.438;2023-02-13T02:49:06;103563.78;;;6.22;80.46
77793;BME280;66983;51.438;5.438;2023-02-13T02:52:07;103569.97;;;6.24;80.66
77793;BME280;66983;51.438;5.438;2023-02-13T02:57:31;103569.03;;;6.20;79.68
77793;BME280;66983;51.438;5.438;2023-02-13T03:00:22;103560.00;;;6.12;80.20
77793;BME280;66983;51.438;5.438;2023-02-13T03:03:18;103562.44;;;6.03;80.16
77793;BME280;66983;51.438;5.438;2023-02-13T03:06:16;103564.97;;;5.98;81.23
77793;BME280;66983;51.438;5.438;2023-02-13T03:08:53;103562.03;;;5.88;80.03
77793;BME280;66983;51.438;5.438;2023-02-13T03:11:42;103559.66;;;5.97;81.06
77793;BME280;66983;51.438;5.438;2023-02-13T03:14:29;103553.47;;;5.98;81.88
77793;BME280;66983;51.438;5.438;2023-02-13T03:16:57;103560.66;;;6.02;81.23
77793;BME280;66983;51.438;5.438;2023-02-13T03:25:49;103560.47;;;5.94;81.45
77793;BME280;66983;51.438;5.438;2023-02-13T03:28:25;103553.09;;;5.83;79.62
77793;BME280;66983;51.438;5.438;2023-02-13T03:31:26;103553.78;;;5.75;80.38
77793;BME280;66983;51.438;5.438;2023-02-13T03:34:12;103553.84;;;5.77;80.66
77793;BME280;66983;51.438;5.438;2023-02-13T03:37:02;103554.06;;;5.86;82.61
77793;BME280;66983;51.438;5.438;2023-02-13T03:45:31;103563.72;;;5.84;81.14
77793;BME280;66983;51.438;5.438;2023-02-13T03:48:23;103557.38;;;5.77;82.12
77793;BME280;66983;51.438;5.438;2023-02-13T03:51:15;103565.22;;;5.74;81.07
77793;BME280;66983;51.438;5.438;2023-02-13T03:53:46;103563.31;;;5.67;81.09
77793;BME280;66983;51.438;5.438;2023-02-13T03:56:18;103573.09;;;5.70;82.21
77793;BME280;66983;51.438;5.438;2023-02-13T03:59:07;103579.28;;;5.70;81.45
77793;BME280;66983;51.438;5.438;2023-02-13T04:07:16;103577.59;;;5.39;82.01
77793;BME280;66983;51.438;5.438;2023-02-13T04:09:58;103574.41;;;5.21;81.08
77793;BME280;66983;51.438;5.438;2023-02-13T04:12:38;103589.56;;;5.27;80.12
77793;BME280;66983;51.438;5.438;2023-02-13T04:15:14;103576.16;;;5.19;81.35
77793;BME280;66983;51.438;5.438;2023-02-13T04:17:46;103574.28;;;5.15;81.50
77793;BME280;66983;51.438;5.438;2023-02-13T04:20:13;103575.09;;;5.13;80.31
77793;BME280;66983;51.438;5.438;2023-02-13T04:22:44;103573.22;;;5.08;81.39
77793;BME280;66983;51.438;5.438;2023-02-13T04:25:13;103571.41;;;5.07;82.43
77793;BME280;66983;51.438;5.438;2023-02-13T04:27:39;103565.88;;;4.98;80.69
77793;BME280;66983;51.438;5.438;2023-02-13T04:30:05;103562.59;;;5.07;81.92
77793;BME280;66983;51.438;5.438;2023-02-13T04:32:31;103561.66;;;5.05;81.65
77793;BME280;66983;51.438;5.438;2023-02-13T04:34:57;103564.88;;;4.95;82.24
77793;BME280;66983;51.438;5.438;2023-02-13T04:37:22;103554.28;;;4.93;80.86
77793;BME280;66983;51.438;5.438;2023-02-13T04:39:48;103555.59;;;4.77;82.10
77793;BME280;66983;51.438;5.438;2023-02-13T04:42:14;103558.13;;;4.74;80.54
77793;BME280;66983;51.438;5.438;2023-02-13T04:44:39;103557.84;;;4.64;81.79
77793;BME280;66983;51.438;5.438;2023-02-13T04:47:05;103563.97;;;4.63;81.14
77793;BME280;66983;51.438;5.438;2023-02-13T04:49:30;103560.22;;;4.55;81.94
77793;BME280;66983;51.438;5.438;2023-02-13T04:51:56;103560.03;;;4.49;81.69
77793;BME280;66983;51.438;5.438;2023-02-13T04:54:21;103559.31;;;4.54;80.70
77793;BME280;66983;51.438;5.438;2023-02-13T04:56:47;103557.34;;;4.47;80.91
77793;BME280;66983;51.438;5.438;2023-02-13T04:59:12;103560.13;;;4.52;81.49
77793;BME280;66983;51.438;5.438;2023-02-13T05:01:38;103560.72;;;4.43;80.82
77793;BME280;66983;51.438;5.438;2023-02-13T05:04:04;103563.31;;;4.40;81.58
77793;BME280;66983;51.438;5.438;2023-02-13T05:06:29;103544.53;;;4.31;82.27
77793;BME280;66983;51.438;5.438;2023-02-13T05:08:55;103545.97;;;4.21;81.89
77793;BME280;66983;51.438;5.438;2023-02-13T05:11:21;103553.06;;;4.22;82.49
77793;BME280;66983;51.438;5.438;2023-02-13T05:13:46;103552.09;;;4.20;82.45
77793;BME280;66983;51.438;5.438;2023-02-13T05:16:12;103545.94;;;4.20;82.08
77793;BME280;66983;51.438;5.438;2023-02-13T05:18:37;103550.22;;;4.16;82.04
77793;BME280;66983;51.438;5.438;2023-02-13T05:21:03;103548.47;;;4.15;81.88
77793;BME280;66983;51.438;5.438;2023-02-13T05:23:47;103550.00;;;4.08;82.11
77793;BME280;66983;51.438;5.438;2023-02-13T05:26:12;103556.91;;;4.05;81.38
77793;BME280;66983;51.438;5.438;2023-02-13T05:28:38;103552.53;;;4.05;82.46
77793;BME280;66983;51.438;5.438;2023-02-13T05:31:22;103554.13;;;4.00;82.30
77793;BME280;66983;51.438;5.438;2023-02-13T05:33:48;103549.66;;;3.98;81.64
77793;BME280;66983;51.438;5.438;2023-02-13T05:36:13;103556.66;;;3.97;81.78
77793;BME280;66983;51.438;5.438;2023-02-13T05:38:39;103555.56;;;3.91;81.91
77793;BME280;66983;51.438;5.438;2023-02-13T05:41:05;103560.81;;;3.89;82.10
77793;BME280;66983;51.438;5.438;2023-02-13T05:43:31;103560.81;;;3.89;82.09
77793;BME280;66983;51.438;5.438;2023-02-13T05:46:04;103571.38;;;3.89;82.80
77793;BME280;66983;51.438;5.438;2023-02-13T05:48:30;103562.47;;;3.86;82.04
77793;BME280;66983;51.438;5.438;2023-02-13T05:50:56;103562.50;;;3.87;82.29
77793;BME280;66983;51.438;5.438;2023-02-13T05:53:21;103566.91;;;3.87;82.46
77793;BME280;66983;51.438;5.438;2023-02-13T05:55:47;103568.47;;;3.82;81.44
77793;BME280;66983;51.438;5.438;2023-02-13T05:58:12;103558.72;;;3.79;82.60
77793;BME280;66983;51.438;5.438;2023-02-13T06:00:38;103556.25;;;3.84;82.76
77793;BME280;66983;51.438;5.438;2023-02-13T06:03:03;103557.94;;;3.82;82.03
77793;BME280;66983;51.438;5.438;2023-02-13T06:05:29;103558.72;;;3.79;81.88
77793;BME280;66983;51.438;5.438;2023-02-13T06:07:55;103563.84;;;3.74;81.61
77793;BME280;66983;51.438;5.438;2023-02-13T06:10:20;103559.41;;;3.73;82.18
77793;BME280;66983;51.438;5.438;2023-02-13T06:12:46;103548.06;;;3.76;82.40
77793;BME280;66983;51.438;5.438;2023-02-13T06:15:11;103559.31;;;3.70;82.26
77793;BME280;66983;51.438;5.438;2023-02-13T06:17:37;103562.78;;;3.69;82.20
77793;BME280;66983;51.438;5.438;2023-02-13T06:20:03;103560.03;;;3.66;82.36
77793;BME280;66983;51.438;5.438;2023-02-13T06:22:28;103556.47;;;3.64;82.36
77793;BME280;66983;51.438;5.438;2023-02-13T06:24:54;103552.97;;;3.65;82.48
77793;BME280;66983;51.438;5.438;2023-02-13T06:27:19;103549.56;;;3.68;82.93
77793;BME280;66983;51.438;5.438;2023-02-13T06:29:45;103555.72;;;3.68;82.04
77793;BME280;66983;51.438;5.438;2023-02-13T06:32:11;103561.03;;;3.70;82.57
77793;BME280;66983;51.438;5.438;2023-02-13T06:34:36;103555.53;;;3.62;82.89
77793;BME280;66983;51.438;5.438;2023-02-13T06:37:02;103560.81;;;3.62;82.81
77793;BME280;66983;51.438;5.438;2023-02-13T06:39:27;103559.16;;;3.66;82.38
77793;BME280;66983;51.438;5.438;2023-02-13T06:41:53;103560.94;;;3.67;82.07
77793;BME280;66983;51.438;5.438;2023-02-13T06:44:18;103567.31;;;3.73;82.19
77793;BME280;66983;51.438;5.438;2023-02-13T06:46:44;103561.00;;;3.68;84.32
77793;BME280;66983;51.438;5.438;2023-02-13T06:49:09;103561.03;;;3.70;83.55
77793;BME280;66983;51.438;5.438;2023-02-13T06:51:35;103565.25;;;3.63;84.06
77793;BME280;66983;51.438;5.438;2023-02-13T06:54:00;103566.81;;;3.58;83.75
77793;BME280;66983;51.438;5.438;2023-02-13T06:56:26;103573.69;;;3.53;83.82
77793;BME280;66983;51.438;5.438;2023-02-13T06:58:52;103573.56;;;3.50;84.13
77793;BME280;66983;51.438;5.438;2023-02-13T07:01:18;103577.16;;;3.52;84.54
77793;BME280;66983;51.438;5.438;2023-02-13T07:03:43;103578.00;;;3.51;83.44
77793;BME280;66983;51.438;5.438;2023-02-13T07:06:09;103586.81;;;3.52;84.55
77793;BME280;66983;51.438;5.438;2023-02-13T07:08:35;103592.09;;;3.52;84.05
77793;BME280;66983;51.438;5.438;2023-02-13T07:11:00;103582.38;;;3.51;84.74
77793;BME280;66983;51.438;5.438;2023-02-13T07:13:26;103589.16;;;3.44;84.62
77793;BME280;66983;51.438;5.438;2023-02-13T07:15:52;103593.38;;;3.39;84.64
77793;BME280;66983;51.438;5.438;2023-02-13T07:18:17;103584.63;;;3.40;85.13
77793;BME280;66983;51.438;5.438;2023-02-13T07:20:43;103588.09;;;3.39;84.49
77793;BME280;66983;51.438;5.438;2023-02-13T07:23:09;103590.59;;;3.34;85.26
77793;BME280;66983;51.438;5.438;2023-02-13T07:25:35;103588.03;;;3.36;85.28
77793;BME280;66983;51.438;5.438;2023-02-13T07:28:05;103592.28;;;3.32;86.01
77793;BME280;66983;51.438;5.438;2023-02-13T07:30:31;103581.69;;;3.31;85.12
77793;BME280;66983;51.438;5.438;2023-02-13T07:33:01;103587.81;;;3.30;84.96
77793;BME280;66983;51.438;5.438;2023-02-13T07:35:28;103588.59;;;3.27;85.25
77793;BME280;66983;51.438;5.438;2023-02-13T07:37:54;103581.59;;;3.28;85.06
77793;BME280;66983;51.438;5.438;2023-02-13T07:40:20;103584.22;;;3.28;84.57
77793;BME280;66983;51.438;5.438;2023-02-13T07:42:45;103585.91;;;3.26;85.56
77793;BME280;66983;51.438;5.438;2023-02-13T07:45:11;103590.34;;;3.27;85.22
77793;BME280;66983;51.438;5.438;2023-02-13T07:47:37;103587.81;;;3.30;85.62
77793;BME280;66983;51.438;5.438;2023-02-13T07:50:03;103588.03;;;3.36;85.23
77793;BME280;66983;51.438;5.438;2023-02-13T07:52:30;103579.91;;;3.30;84.79
77793;BME280;66983;51.438;5.438;2023-02-13T07:54:56;103580.00;;;3.33;85.22
77793;BME280;66983;51.438;5.438;2023-02-13T07:57:22;103595.72;;;3.30;85.13
77793;BME280;66983;51.438;5.438;2023-02-13T07:59:47;103598.34;;;3.30;85.47
77793;BME280;66983;51.438;5.438;2023-02-13T08:02:14;103589.28;;;3.22;85.45
77793;BME280;66983;51.438;5.438;2023-02-13T08:04:41;103593.19;;;3.33;85.64
77793;BME280;66983;51.438;5.438;2023-02-13T08:07:11;103598.47;;;3.33;85.28
77793;BME280;66983;51.438;5.438;2023-02-13T08:09:36;103603.03;;;3.38;86.19
77793;BME280;66983;51.438;5.438;2023-02-13T08:12:21;103597.91;;;3.43;85.43
77793;BME280;66983;51.438;5.438;2023-02-13T08:14:47;103592.53;;;3.40;85.62
77793;BME280;66983;51.438;5.438;2023-02-13T08:17:12;103600.63;;;3.45;85.05
77793;BME280;66983;51.438;5.438;2023-02-13T08:19:38;103605.09;;;3.47;86.43
77793;BME280;66983;51.438;5.438;2023-02-13T08:22:03;103612.34;;;3.53;86.32
77793;BME280;66983;51.438;5.438;2023-02-13T08:24:29;103613.56;;;3.62;85.05
77793;BME280;66983;51.438;5.438;2023-02-13T08:26:55;103620.06;;;3.73;85.48
77793;BME280;66983;51.438;5.438;2023-02-13T08:29:21;103612.28;;;3.77;84.41
77793;BME280;66983;51.438;5.438;2023-02-13T08:31:46;103616.69;;;3.78;85.08
77793;BME280;66983;51.438;5.438;2023-02-13T08:34:15;103624.63;;;3.78;86.06
77793;BME280;66983;51.438;5.438;2023-02-13T08:36:41;103631.06;;;3.86;85.96
77793;BME280;66983;51.438;5.438;2023-02-13T08:39:08;103624.03;;;3.86;84.80
77793;BME280;66983;51.438;5.438;2023-02-13T08:41:34;103627.06;;;3.98;85.35
77793;BME280;66983;51.438;5.438;2023-02-13T08:44:00;103634.28;;;4.04;84.91
77793;BME280;66983;51.438;5.438;2023-02-13T08:46:25;103622.88;;;4.05;84.80
77793;BME280;66983;51.438;5.438;2023-02-13T08:48:51;103623.09;;;4.11;84.76
77793;BME280;66983;51.438;5.438;2023-02-13T08:51:16;103632.09;;;4.18;84.29
77793;BME280;66983;51.438;5.438;2023-02-13T08:53:42;103628.91;;;4.28;84.58
77793;BME280;66983;51.438;5.438;2023-02-13T08:56:08;103628.09;;;4.30;83.69
77793;BME280;66983;51.438;5.438;2023-02-13T08:58:33;103632.75;;;4.37;84.49
77793;BME280;66983;51.438;5.438;2023-02-13T09:00:59;103633.69;;;4.39;84.89
77793;BME280;66983;51.438;5.438;2023-02-13T09:03:25;103633.06;;;4.48;84.65
77793;BME280;66983;51.438;5.438;2023-02-13T09:05:50;103636.75;;;4.53;84.97
77793;BME280;66983;51.438;5.438;2023-02-13T09:08:16;103630.06;;;4.64;84.61
77793;BME280;66983;51.438;5.438;2023-02-13T09:10:42;103624.03;;;4.70;84.02
77793;BME280;66983;51.438;5.438;2023-02-13T09:13:11;103628.66;;;4.77;84.13
77793;BME280;66983;51.438;5.438;2023-02-13T09:15:38;103627.13;;;4.84;83.77
77793;BME280;66983;51.438;5.438;2023-02-13T09:18:08;103629.16;;;4.94;84.54
77793;BME280;66983;51.438;5.438;2023-02-13T09:20:33;103622.16;;;4.96;83.75
77793;BME280;66983;51.438;5.438;2023-02-13T09:22:59;103625.03;;;5.03;83.18
77793;BME280;66983;51.438;5.438;2023-02-13T09:25:24;103616.44;;;5.10;84.42
77793;BME280;66983;51.438;5.438;2023-02-13T09:27:50;103629.94;;;5.20;83.05
77793;BME280;66983;51.438;5.438;2023-02-13T09:30:16;103631.78;;;5.24;83.16
77793;BME280;66983;51.438;5.438;2023-02-13T09:32:49;103634.66;;;5.31;83.47
77793;BME280;66983;51.438;5.438;2023-02-13T09:35:15;103632.19;;;5.37;83.69
77793;BME280;66983;51.438;5.438;2023-02-13T09:37:41;103622.66;;;5.44;83.44
77793;BME280;66983;51.438;5.438;2023-02-13T09:40:27;103628.28;;;5.56;82.90
77793;BME280;66983;51.438;5.438;2023-02-13T09:43:06;103632.97;;;5.66;82.64
77793;BME280;66983;51.438;5.438;2023-02-13T09:45:34;103626.03;;;5.71;83.01
77793;BME280;66983;51.438;5.438;2023-02-13T09:48:00;103625.41;;;5.82;82.52
77793;BME280;66983;51.438;5.438;2023-02-13T09:50:30;103625.56;;;5.88;81.71
77793;BME280;66983;51.438;5.438;2023-02-13T09:52:58;103627.59;;;5.96;82.22
77793;BME280;66983;51.438;5.438;2023-02-13T09:55:31;103633.06;;;6.04;81.90
77793;BME280;66983;51.438;5.438;2023-02-13T10:00:54;103626.16;;;6.10;81.20
77793;BME280;66983;51.438;5.438;2023-02-13T10:03:33;103633.50;;;6.21;81.43
77793;BME280;66983;51.438;5.438;2023-02-13T10:06:13;103629.25;;;6.29;80.38
77793;BME280;66983;51.438;5.438;2023-02-13T10:14:31;103639.31;;;6.43;80.51
77793;BME280;66983;51.438;5.438;2023-02-13T10:17:08;103630.63;;;6.51;80.30
77793;BME280;66983;51.438;5.438;2023-02-13T10:20:16;103632.56;;;6.58;79.80
77793;BME280;66983;51.438;5.438;2023-02-13T10:23:03;103631.94;;;6.68;79.96
77793;BME280;66983;51.438;5.438;2023-02-13T10:25:48;103629.44;;;6.75;79.43
77793;BME280;66983;51.438;5.438;2023-02-13T10:28:27;103629.47;;;6.78;78.93
77793;BME280;66983;51.438;5.438;2023-02-13T10:31:04;103632.34;;;6.88;78.57
77793;BME280;66983;51.438;5.438;2023-02-13T10:33:37;103621.97;;;6.98;78.19
77793;BME280;66983;51.438;5.438;2023-02-13T10:38:44;103619.59;;;7.12;78.03
77793;BME280;66983;51.438;5.438;2023-02-13T10:46:42;103616.63;;;7.42;76.54
77793;BME280;66983;51.438;5.438;2023-02-13T10:49:19;103614.97;;;7.47;76.96
77793;BME280;66983;51.438;5.438;2023-02-13T10:57:31;103604.63;;;7.62;75.47
77793;BME280;66983;51.438;5.438;2023-02-13T11:02:31;103604.91;;;7.77;74.86
77793;BME280;66983;51.438;5.438;2023-02-13T11:05:15;103597.94;;;7.86;75.28
77793;BME280;66983;51.438;5.438;2023-02-13T11:07:43;103601.63;;;7.94;75.31
77793;BME280;66983;51.438;5.438;2023-02-13T11:10:17;103593.81;;;8.03;74.05
77793;BME280;66983;51.438;5.438;2023-02-13T11:12:44;103586.84;;;8.11;74.18
77793;BME280;66983;51.438;5.438;2023-02-13T11:15:31;103588.72;;;8.18;74.92
77793;BME280;66983;51.438;5.438;2023-02-13T11:18:10;103594.28;;;8.33;72.97
77793;BME280;66983;51.438;5.438;2023-02-13T11:20:40;103578.50;;;8.42;72.42
77793;BME280;66983;51.438;5.438;2023-02-13T11:25:56;103568.06;;;8.56;71.99
77793;BME280;66983;51.438;5.438;2023-02-13T11:28:22;103572.53;;;8.62;71.65
77793;BME280;66983;51.438;5.438;2023-02-13T11:30:48;103566.47;;;8.70;72.44
77793;BME280;66983;51.438;5.438;2023-02-13T11:35:44;103568.34;;;8.79;70.85
77793;BME280;66983;51.438;5.438;2023-02-13T11:40:45;103558.78;;;8.95;71.94
77793;BME280;66983;51.438;5.438;2023-02-13T11:45:44;103542.94;;;9.04;71.81
77793;BME280;66983;51.438;5.438;2023-02-13T11:48:20;103545.66;;;9.11;70.78
77793;BME280;66983;51.438;5.438;2023-02-13T11:50:51;103543.06;;;9.17;72.37
77793;BME280;66983;51.438;5.438;2023-02-13T11:53:22;103548.47;;;9.25;70.83
77793;BME280;66983;51.438;5.438;2023-02-13T11:56:10;103545.88;;;9.31;71.04
77793;BME280;66983;51.438;5.438;2023-02-13T11:58:37;103541.47;;;9.35;69.91
77793;BME280;66983;51.438;5.438;2023-02-13T12:04:03;103537.13;;;9.46;71.15
77793;BME280;66983;51.438;5.438;2023-02-13T12:06:30;103538.97;;;9.51;68.94
77793;BME280;66983;51.438;5.438;2023-02-13T12:09:10;103536.28;;;9.48;69.79
77793;BME280;66983;51.438;5.438;2023-02-13T12:11:51;103532.72;;;9.48;69.55
77793;BME280;66983;51.438;5.438;2023-02-13T12:14:41;103535.44;;;9.54;68.94
77793;BME280;66983;51.438;5.438;2023-02-13T12:17:15;103524.84;;;9.60;70.31
77793;BME280;66983;51.438;5.438;2023-02-13T12:19:44;103525.75;;;9.65;70.57
77793;BME280;66983;51.438;5.438;2023-02-13T12:33:04;103517.94;;;9.91;67.56
77793;BME280;66983;51.438;5.438;2023-02-13T12:35:43;103514.44;;;9.97;67.77
77793;BME280;66983;51.438;5.438;2023-02-13T12:38:23;103511.78;;;9.95;68.21
77793;BME280;66983;51.438;5.438;2023-02-13T12:52:46;103489.75;;;10.24;66.85
77793;BME280;66983;51.438;5.438;2023-02-13T12:58:43;103490.69;;;10.32;66.16
77793;BME280;66983;51.438;5.438;2023-02-13T13:03:56;103480.97;;;10.43;66.37
77793;BME280;66983;51.438;5.438;2023-02-13T13:15:10;103465.94;;;10.59;65.89
77793;BME280;66983;51.438;5.438;2023-02-13T13:17:56;103463.25;;;10.68;65.61
77793;BME280;66983;51.438;5.438;2023-02-13T13:23:43;103469.53;;;10.79;65.17
77793;BME280;66983;51.438;5.438;2023-02-13T13:26:20;103470.44;;;10.84;65.20
77793;BME280;66983;51.438;5.438;2023-02-13T13:28:57;103465.97;;;10.92;65.34
77793;BME280;66983;51.438;5.438;2023-02-13T13:31:26;103450.88;;;10.93;64.86
77793;BME280;66983;51.438;5.438;2023-02-13T13:33:59;103451.78;;;11.01;65.50
77793;BME280;66983;51.438;5.438;2023-02-13T13:47:31;103438.44;;;11.23;63.99
77793;BME280;66983;51.438;5.438;2023-02-13T13:50:03;103433.09;;;11.22;63.98
77793;BME280;66983;51.438;5.438;2023-02-13T13:52:33;103417.97;;;11.19;63.44
77793;BME280;66983;51.438;5.438;2023-02-13T13:55:02;103430.44;;;11.27;63.98
77793;BME280;66983;51.438;5.438;2023-02-13T14:05:30;103425.09;;;11.39;62.65
77793;BME280;66983;51.438;5.438;2023-02-13T14:11:03;103426.00;;;11.38;63.15
77793;BME280;66983;51.438;5.438;2023-02-13T14:13:31;103418.88;;;11.35;62.91
77793;BME280;66983;51.438;5.438;2023-02-13T14:15:58;103426.88;;;11.40;62.34
77793;BME280;66983;51.438;5.438;2023-02-13T14:18:26;103431.31;;;11.45;61.82
77793;BME280;66983;51.438;5.438;2023-02-13T14:20:57;103414.38;;;11.45;62.51
77793;BME280;66983;51.438;5.438;2023-02-13T14:23:43;103419.72;;;11.51;62.22
77793;BME280;66983;51.438;5.438;2023-02-13T14:28:53;103403.72;;;11.54;61.09
77793;BME280;66983;51.438;5.438;2023-02-13T14:31:29;103403.72;;;11.54;60.88
77793;BME280;66983;51.438;5.438;2023-02-13T14:33:59;103410.81;;;11.52;60.59
77793;BME280;66983;51.438;5.438;2023-02-13T14:36:32;103404.59;;;11.54;60.86
77793;BME280;66983;51.438;5.438;2023-02-13T14:39:24;103409.03;;;11.57;60.80
77793;BME280;66983;51.438;5.438;2023-02-13T14:44:44;103409.03;;;11.60;61.59
77793;BME280;66983;51.438;5.438;2023-02-13T14:49:58;103409.03;;;11.60;60.81
77793;BME280;66983;51.438;5.438;2023-02-13T14:52:31;103405.47;;;11.66;60.88
77793;BME280;66983;51.438;5.438;2023-02-13T14:55:04;103397.47;;;11.66;61.35
77793;BME280;66983;51.438;5.438;2023-02-13T14:57:37;103402.81;;;11.66;59.86
77793;BME280;66983;51.438;5.438;2023-02-13T15:00:27;103393.00;;;11.66;60.29
77793;BME280;66983;51.438;5.438;2023-02-13T15:03:07;103391.22;;;11.68;60.36
77793;BME280;66983;51.438;5.438;2023-02-13T15:05:38;103392.13;;;11.67;60.39
77793;BME280;66983;51.438;5.438;2023-02-13T15:08:12;103389.44;;;11.67;60.20
77793;BME280;66983;51.438;5.438;2023-02-13T15:10:43;103396.56;;;11.68;59.81
77793;BME280;66983;51.438;5.438;2023-02-13T15:13:15;103392.13;;;11.67;59.86
77793;BME280;66983;51.438;5.438;2023-02-13T15:15:47;103389.44;;;11.64;61.11
77793;BME280;66983;51.438;5.438;2023-02-13T15:18:25;103392.13;;;11.67;60.60
77793;BME280;66983;51.438;5.438;2023-02-13T15:20:55;103383.22;;;11.68;60.30
77793;BME280;66983;51.438;5.438;2023-02-13T15:23:29;103383.22;;;11.65;59.34
77793;BME280;66983;51.438;5.438;2023-02-13T15:26:01;103383.22;;;11.62;59.61
77793;BME280;66983;51.438;5.438;2023-02-13T15:28:28;103385.00;;;11.63;59.91
77793;BME280;66983;51.438;5.438;2023-02-13T15:30:58;103374.31;;;11.60;60.39
77793;BME280;66983;51.438;5.438;2023-02-13T15:33:27;103375.22;;;11.62;59.79
77793;BME280;66983;51.438;5.438;2023-02-13T15:35:59;103376.09;;;11.64;60.55
77793;BME280;66983;51.438;5.438;2023-02-13T15:38:33;103370.75;;;11.66;60.38
77793;BME280;66983;51.438;5.438;2023-02-13T15:41:08;103370.75;;;11.61;61.03
77793;BME280;66983;51.438;5.438;2023-02-13T15:43:54;103367.19;;;11.62;60.34
77793;BME280;66983;51.438;5.438;2023-02-13T15:46:34;103368.97;;;11.59;61.58
77793;BME280;66983;51.438;5.438;2023-02-13T15:49:13;103369.88;;;11.56;60.75
77793;BME280;66983;51.438;5.438;2023-02-13T15:51:39;103365.41;;;11.52;61.14
77793;BME280;66983;51.438;5.438;2023-02-13T15:54:21;103371.66;;;11.51;61.59